Time;durP1;ratioP1;P1;durP2;ratioP2;P2;SDS_P1;SDS_P2;PMS_P1;PMS_P2;Temp;Humidity;BMP_temperature;BMP_pressure;BME280_temperature;BME280_humidity;BME280_pressure;Samples;Min_cycle;Max_cycle;Signal;HPM_P1;HPM_P2
2022/05/04 00:01:32;;;;;;;16.40;7.82;;;;;;;7.57;100.00;162545.06;4992643;28;20061;-55
2022/05/04 00:03:57;;;;;;;19.08;6.80;;;;;;;7.55;100.00;162539.72;4994427;28;20081;-55
2022/05/04 00:06:23;;;;;;;12.13;6.85;;;;;;;7.54;100.00;162537.00;4981864;28;20101;-55
2022/05/04 00:08:49;;;;;;;14.23;6.55;;;;;;;7.49;100.00;162523.50;4975260;28;20034;-55
2022/05/04 00:11:15;;;;;;;15.68;8.02;;;;;;;7.51;100.00;162528.91;4973621;28;20046;-55
2022/05/04 00:13:40;;;;;;;15.35;10.60;;;;;;;7.50;100.00;162526.19;4974983;28;20069;-56
2022/05/04 00:16:06;;;;;;;13.85;7.07;;;;;;;7.49;100.00;162523.50;4973549;28;20043;-56
2022/05/04 00:18:32;;;;;;;21.50;9.10;;;;;;;7.46;100.00;162516.78;4974702;28;20093;-56
2022/05/04 00:20:57;;;;;;;20.02;8.65;;;;;;;7.44;100.00;162511.44;4973848;28;20063;-56
2022/05/04 00:23:24;;;;;;;22.90;7.25;;;;;;;7.46;100.00;162515.44;4975235;28;20062;-56
2022/05/04 00:25:50;;;;;;;24.48;9.45;;;;;;;7.42;100.00;162504.66;4973234;28;20090;-56
2022/05/04 00:28:15;;;;;;;20.48;9.68;;;;;;;7.36;100.00;162489.88;4974837;28;20029;-56
2022/05/04 00:30:40;;;;;;;21.48;9.00;;;;;;;7.29;100.00;162472.34;4973409;28;20507;-56
2022/05/04 00:33:06;;;;;;;14.20;7.40;;;;;;;7.30;100.00;162475.03;4974536;28;20034;-56
2022/05/04 00:35:31;;;;;;;15.23;7.90;;;;;;;7.26;100.00;162464.22;4977307;28;20018;-55
2022/05/04 00:37:57;;;;;;;20.65;8.40;;;;;;;7.20;100.00;162448.06;4994139;28;20023;-56
2022/05/04 00:40:22;;;;;;;14.85;6.70;;;;;;;7.15;100.00;162434.63;4993779;28;20363;-55
2022/05/04 00:42:47;;;;;;;16.33;6.30;;;;;;;7.14;100.00;162431.94;4992517;28;20046;-56
2022/05/04 00:45:13;;;;;;;13.88;8.07;;;;;;;7.13;100.00;162429.22;4994044;28;20026;-56
2022/05/04 00:47:38;;;;;;;18.38;7.80;;;;;;;7.14;100.00;162431.94;4992028;28;20049;-56
2022/05/04 00:50:06;;;;;;;18.15;8.80;;;;;;;7.08;100.00;162415.78;4993667;28;20054;-56
2022/05/04 00:52:34;;;;;;;25.33;10.23;;;;;;;7.06;100.00;162410.38;4992485;28;20493;-55
2022/05/04 00:55:00;;;;;;;16.75;7.82;;;;;;;7.06;100.00;162410.38;4993511;28;20444;-56
2022/05/04 01:00:12;;;;;;;24.48;8.60;;;;;;;7.01;100.00;162396.91;4990145;28;20702;-56
2022/05/04 01:02:39;;;;;;;16.33;7.63;;;;;;;6.99;100.00;162394.22;4972111;28;20121;-56
2022/05/04 01:05:09;;;;;;;18.60;8.20;;;;;;;6.96;100.00;162386.13;4974548;28;20086;-56
2022/05/04 01:07:35;;;;;;;14.75;9.55;;;;;;;6.98;100.00;162390.19;4972626;28;20518;-56
2022/05/04 01:10:00;;;;;;;13.90;7.82;;;;;;;6.97;100.00;162388.81;4973978;28;20026;-56
2022/05/04 01:12:25;;;;;;;13.35;6.72;;;;;;;6.99;100.00;162394.22;4972220;28;20134;-56
2022/05/04 01:14:51;;;;;;;16.65;8.88;;;;;;;7.01;100.00;162396.91;4975412;28;20077;-56
2022/05/04 01:17:16;;;;;;;22.95;11.35;;;;;;;6.98;100.00;162391.53;4972193;28;20038;-56
2022/05/04 01:19:41;;;;;;;18.33;7.28;;;;;;;6.96;100.00;162384.78;4973853;28;20023;-56
2022/05/04 01:22:08;;;;;;;22.33;7.35;;;;;;;6.91;100.00;162372.66;4972550;28;20115;-55
2022/05/04 01:24:33;;;;;;;24.70;8.60;;;;;;;6.86;100.00;162359.22;4973726;28;20480;-56
2022/05/04 01:26:58;;;;;;;22.40;8.02;;;;;;;6.84;100.00;162353.81;4977654;28;20096;-56
2022/05/04 01:29:24;;;;;;;15.77;7.90;;;;;;;6.78;100.00;162337.66;4993235;28;20505;-56
2022/05/04 01:31:49;;;;;;;19.00;7.93;;;;;;;6.74;100.00;162326.94;4991295;28;20541;-55
2022/05/04 01:34:14;;;;;;;24.75;8.10;;;;;;;6.78;100.00;162337.66;4993062;28;20034;-55
2022/05/04 01:36:40;;;;;;;23.70;8.57;;;;;;;6.76;100.00;162332.28;4991480;28;20073;-56
2022/05/04 01:39:05;;;;;;;10.52;7.50;;;;;;;6.78;100.00;162337.66;4992904;28;20077;-55
2022/05/04 01:44:14;;;;;;;21.55;9.25;;;;;;;6.72;100.00;162321.53;4993070;28;20100;-56
2022/05/04 01:46:40;;;;;;;25.10;8.93;;;;;;;6.76;100.00;162332.28;4990816;28;20043;-56
2022/05/04 01:49:05;;;;;;;11.95;9.60;;;;;;;6.77;100.00;162334.97;4992803;28;20030;-55
2022/05/04 01:51:30;;;;;;;20.17;8.52;;;;;;;6.78;100.00;162337.66;4991297;28;20041;-56
2022/05/04 01:53:56;;;;;;;19.15;8.90;;;;;;;6.80;100.00;162344.41;4992742;28;20533;-56
2022/05/04 01:56:22;;;;;;;13.43;7.30;;;;;;;6.83;100.00;162351.13;4975348;28;20043;-56
2022/05/04 01:58:47;;;;;;;19.05;10.27;;;;;;;6.88;100.00;162363.25;4973131;28;20034;-56
2022/05/04 02:01:13;;;;;;;14.98;7.70;;;;;;;6.87;100.00;162361.91;4971396;28;20055;-56
2022/05/04 02:03:38;;;;;;;18.50;8.48;;;;;;;6.92;100.00;162374.03;4972807;28;20089;-56
2022/05/04 02:06:04;;;;;;;17.52;7.45;;;;;;;6.94;100.00;162379.41;4971725;28;20043;-56
2022/05/04 02:08:29;;;;;;;15.95;7.78;;;;;;;6.91;100.00;162372.66;4971895;28;20031;-56
2022/05/04 02:10:55;;;;;;;14.18;8.60;;;;;;;6.92;100.00;162374.03;4971843;28;20038;-56
2022/05/04 02:13:20;;;;;;;20.27;7.35;;;;;;;6.93;100.00;162378.06;4973174;28;20019;-56
2022/05/04 02:15:45;;;;;;;11.93;6.53;;;;;;;6.90;100.00;162369.97;4971220;28;20549;-56
2022/05/04 02:18:11;;;;;;;20.45;7.55;;;;;;;6.92;100.00;162375.38;4972829;28;20398;-56
2022/05/04 02:20:36;;;;;;;19.65;8.25;;;;;;;6.87;100.00;162361.91;4971518;28;20649;-56
2022/05/04 02:23:01;;;;;;;15.48;9.15;;;;;;;6.90;100.00;162368.66;4972453;28;20383;-56
2022/05/04 02:25:27;;;;;;;12.75;9.02;;;;;;;6.86;100.00;162359.22;4983367;28;20394;-56
2022/05/04 02:27:52;;;;;;;14.50;8.40;;;;;;;6.81;100.00;162345.78;4992244;28;20018;-56
2022/05/04 02:30:18;;;;;;;13.75;6.60;;;;;;;6.82;100.00;162349.78;4991653;28;20031;-56
2022/05/04 02:32:43;;;;;;;18.83;8.43;;;;;;;6.78;100.00;162339.00;4990570;28;20521;-57
2022/05/04 02:37:55;;;;;;;11.02;6.57;;;;;;;6.77;100.00;162334.97;4990437;28;20044;-56
2022/05/04 02:40:21;;;;;;;28.63;10.02;;;;;;;6.76;100.00;162332.28;4991943;28;20115;-56
2022/05/04 02:42:46;;;;;;;14.15;8.38;;;;;;;6.77;100.00;162336.34;4990274;28;20038;-56
2022/05/04 02:45:12;;;;;;;16.30;7.63;;;;;;;6.73;100.00;162325.53;4991606;28;20449;-56
2022/05/04 02:47:39;;;;;;;15.93;8.00;;;;;;;6.75;100.00;162329.56;4990312;28;20045;-56
2022/05/04 02:50:05;;;;;;;16.40;9.82;;;;;;;6.69;100.00;162313.44;4992103;28;20022;-57
2022/05/04 02:52:30;;;;;;;21.38;7.80;;;;;;;6.66;100.00;162308.03;4984882;28;20042;-56
2022/05/04 02:54:56;;;;;;;18.55;7.50;;;;;;;6.62;100.00;162297.28;4972545;28;20027;-56
2022/05/04 02:57:22;;;;;;;25.77;7.55;;;;;;;6.55;100.00;162278.44;4970812;28;20043;-56
2022/05/04 02:59:47;;;;;;;21.17;8.55;;;;;;;6.62;100.00;162295.94;4971784;28;20037;-56
2022/05/04 03:02:27;;;;;;;16.45;7.63;;;;;;;6.62;100.00;162297.28;4970732;28;20055;-56
2022/05/04 03:05:00;;;;;;;15.48;7.97;;;;;;;6.65;100.00;162305.38;4972294;28;20023;-56
2022/05/04 03:07:26;;;;;;;20.67;6.95;;;;;;;6.66;100.00;162306.69;4975815;28;20058;-56
2022/05/04 03:09:52;;;;;;;25.85;8.18;;;;;;;6.64;100.00;162302.69;4991928;28;20069;-56
2022/05/04 03:12:18;;;;;;;20.58;9.60;;;;;;;6.62;100.00;162297.28;4990128;28;20412;-56
2022/05/04 03:14:43;;;;;;;20.08;7.72;;;;;;;6.64;100.00;162301.31;4991274;28;20014;-57
2022/05/04 03:17:09;;;;;;;19.90;9.10;;;;;;;6.59;100.00;162289.19;4990154;28;20059;-57
2022/05/04 03:19:35;;;;;;;15.52;6.88;;;;;;;6.59;100.00;162289.19;4994780;28;20165;-57
2022/05/04 03:22:00;;;;;;;18.42;7.07;;;;;;;6.62;100.00;162297.28;4989034;28;20101;-56
2022/05/04 03:24:26;;;;;;;14.02;6.97;;;;;;;6.65;100.00;162305.38;4976031;28;20042;-56
2022/05/04 03:26:51;;;;;;;21.98;8.20;;;;;;;6.65;100.00;162305.38;4974628;28;20039;-57
2022/05/04 03:29:17;;;;;;;20.52;9.20;;;;;;;6.71;100.00;162320.16;4976067;28;20525;-56
2022/05/04 03:31:42;;;;;;;32.10;14.65;;;;;;;6.75;100.00;162329.56;4974347;28;20046;-57
2022/05/04 03:34:07;;;;;;;18.80;8.15;;;;;;;6.71;100.00;162318.81;4976167;28;20026;-57
2022/05/04 03:36:35;;;;;;;35.35;8.25;;;;;;;6.74;100.00;162326.94;4973697;28;20081;-57
2022/05/04 03:39:01;;;;;;;18.35;9.00;;;;;;;6.67;100.00;162310.72;4976197;28;20041;-57
2022/05/04 03:41:27;;;;;;;17.73;7.13;;;;;;;6.61;100.00;162294.56;4974370;28;20061;-57
2022/05/04 03:43:52;;;;;;;20.80;8.88;;;;;;;6.61;100.00;162293.25;4975588;28;20420;-57
2022/05/04 03:46:20;;;;;;;41.28;9.15;;;;;;;6.57;100.00;162283.81;4974193;28;20050;-57
2022/05/04 03:48:48;;;;;;;22.10;7.67;;;;;;;6.59;100.00;162289.19;4975671;28;20053;-57
2022/05/04 03:51:19;;;;;;;15.82;8.93;;;;;;;6.59;100.00;162289.19;4975312;28;20046;-56
2022/05/04 03:53:45;;;;;;;18.30;6.90;;;;;;;6.61;100.00;162294.56;4988186;28;20390;-57
2022/05/04 03:56:11;;;;;;;18.58;7.90;;;;;;;6.61;100.00;162294.56;4993418;28;20046;-56
2022/05/04 03:58:37;;;;;;;25.95;8.85;;;;;;;6.62;100.00;162297.28;4994325;28;20056;-56
2022/05/04 04:01:03;;;;;;;16.73;9.23;;;;;;;6.62;100.00;162295.94;4992769;28;20089;-56
2022/05/04 04:03:28;;;;;;;12.50;6.90;;;;;;;6.58;100.00;162286.53;4994113;28;20446;-56
2022/05/04 04:05:54;;;;;;;19.15;10.70;;;;;;;6.60;100.00;162290.56;4992922;28;20038;-56
2022/05/04 04:08:20;;;;;;;25.38;8.55;;;;;;;6.63;100.00;162298.59;4989989;28;20034;-56
2022/05/04 04:10:46;;;;;;;13.23;8.05;;;;;;;6.64;100.00;162302.69;4992427;28;20405;-57
2022/05/04 04:13:11;;;;;;;14.77;6.95;;;;;;;6.64;100.00;162302.69;4993720;28;20026;-57
2022/05/04 04:15:36;;;;;;;13.93;6.75;;;;;;;6.68;100.00;162312.09;4989414;28;20506;-56
2022/05/04 04:18:02;;;;;;;25.58;9.70;;;;;;;6.66;100.00;162308.03;4993164;28;20022;-56
2022/05/04 04:23:11;;;;;;;19.58;9.25;;;;;;;6.66;100.00;162308.03;4990669;28;20053;-56
2022/05/04 04:25:37;;;;;;;13.55;7.95;;;;;;;6.67;100.00;162310.72;4988994;28;20022;-56
2022/05/04 04:28:03;;;;;;;12.23;6.97;;;;;;;6.67;100.00;162309.41;4991208;28;20022;-56
2022/05/04 04:30:28;;;;;;;15.77;8.43;;;;;;;6.67;100.00;162309.41;4991299;28;20041;-56
2022/05/04 04:32:54;;;;;;;17.77;7.30;;;;;;;6.63;100.00;162298.59;4994430;28;20358;-56
2022/05/04 04:35:19;;;;;;;14.07;7.80;;;;;;;6.64;100.00;162302.69;4994499;28;20030;-57
2022/05/04 04:37:44;;;;;;;19.95;8.38;;;;;;;6.70;100.00;162317.50;4992084;28;20043;-56
2022/05/04 04:40:10;;;;;;;22.02;8.32;;;;;;;6.66;100.00;162308.03;4993402;28;20034;-56
2022/05/04 04:42:35;;;;;;;16.88;8.15;;;;;;;6.61;100.00;162294.56;4990777;28;20042;-56
2022/05/04 04:45:01;;;;;;;30.30;9.68;;;;;;;6.62;100.00;162297.28;4981422;28;20034;-56
2022/05/04 04:47:26;;;;;;;21.75;7.60;;;;;;;6.67;100.00;162310.72;4988215;28;20069;-57
2022/05/04 04:49:55;;;;;;;25.85;9.60;;;;;;;6.69;100.00;162314.81;4994091;28;20029;-56
2022/05/04 04:52:21;;;;;;;20.92;8.68;;;;;;;6.64;100.00;162302.69;4992157;28;20046;-56
2022/05/04 04:54:46;;;;;;;15.93;9.80;;;;;;;6.72;100.00;162321.53;4993585;28;20027;-56
2022/05/04 04:57:12;;;;;;;18.95;7.05;;;;;;;6.73;100.00;162324.22;4992367;28;20042;-56
2022/05/04 04:59:37;;;;;;;14.55;7.30;;;;;;;6.66;100.00;162308.03;4993244;28;20026;-57
2022/05/04 05:02:02;;;;;;;17.25;8.88;;;;;;;6.67;100.00;162310.72;4992354;28;20112;-57
2022/05/04 05:04:28;;;;;;;12.90;6.38;;;;;;;6.70;100.00;162316.13;4993886;28;20038;-56
2022/05/04 05:06:53;;;;;;;14.93;6.75;;;;;;;6.78;100.00;162339.00;4991958;28;20038;-56
2022/05/04 05:09:18;;;;;;;27.17;8.55;;;;;;;6.84;100.00;162353.81;4993699;28;20497;-57
2022/05/04 05:11:44;;;;;;;14.50;8.13;;;;;;;6.97;100.00;162387.50;4992177;28;20073;-57
2022/05/04 05:16:53;;;;;;;12.95;6.80;;;;;;;6.99;100.00;162394.22;4992257;28;20045;-57
2022/05/04 05:19:19;;;;;;;21.23;9.63;;;;;;;6.96;100.00;162386.13;4993834;28;20462;-57
2022/05/04 05:21:44;;;;;;;17.83;8.32;;;;;;;7.05;100.00;162407.66;4991555;28;20076;-56
2022/05/04 05:24:09;;;;;;;39.05;9.65;;;;;;;7.04;100.00;162404.97;4993326;28;20459;-57
2022/05/04 05:26:35;;;;;;;13.85;7.65;;;;;;;6.99;100.00;162394.22;4991976;28;20425;-57
2022/05/04 05:29:00;;;;;;;17.90;8.38;;;;;;;7.03;100.00;162402.31;4993190;28;20081;-56
2022/05/04 05:31:26;;;;;;;22.60;7.43;;;;;;;7.08;100.00;162417.09;4990999;28;20038;-57
2022/05/04 05:33:51;;;;;;;13.05;6.75;;;;;;;7.19;100.00;162445.38;4993016;28;20026;-57
2022/05/04 05:36:16;;;;;;;21.63;9.63;;;;;;;7.36;100.00;162488.50;4990881;28;20049;-56
2022/05/04 05:38:42;;;;;;;21.05;7.95;;;;;;;7.41;100.00;162502.00;4992361;28;20061;-56
2022/05/04 05:41:07;;;;;;;12.88;7.32;;;;;;;7.50;100.00;162526.19;4990938;28;20034;-56
2022/05/04 05:43:32;;;;;;;11.80;8.60;;;;;;;7.61;100.00;162555.88;4991605;28;20030;-57
2022/05/04 05:45:58;;;;;;;34.10;12.30;;;;;;;7.60;100.00;162551.78;4991030;28;20042;-57
2022/05/04 05:48:23;;;;;;;22.00;8.35;;;;;;;7.66;100.00;162566.63;4992517;28;20018;-56
2022/05/04 05:50:49;;;;;;;22.02;8.35;;;;;;;7.59;100.00;162550.47;4990473;28;20038;-56
2022/05/04 05:53:14;;;;;;;21.98;9.52;;;;;;;7.78;100.00;162599.00;4992485;28;20031;-56
2022/05/04 05:55:40;;;;;;;13.75;6.80;;;;;;;7.88;100.00;162625.91;4990898;28;20054;-56
2022/05/04 05:58:05;;;;;;;11.77;7.68;;;;;;;8.01;100.00;162658.22;4991793;28;20033;-56
2022/05/04 06:00:31;;;;;;;20.83;8.95;;;;;;;8.04;100.00;162667.66;4991007;28;20019;-56
2022/05/04 06:02:56;;;;;;;20.98;9.38;;;;;;;8.12;100.00;162687.91;4992223;28;20533;-56
2022/05/04 06:05:22;;;;;;;13.73;7.55;;;;;;;8.25;100.00;162721.63;4992596;28;20018;-56
2022/05/04 06:07:48;;;;;;;17.95;7.35;;;;;;;8.29;100.00;162731.03;4990688;28;20433;-56
2022/05/04 06:10:15;;;;;;;18.10;8.30;;;;;;;8.31;100.00;162737.78;4992779;28;20112;-55
2022/05/04 06:12:40;;;;;;;18.38;8.20;;;;;;;8.38;100.00;162755.25;4990571;28;20062;-56
2022/05/04 06:15:09;;;;;;;24.83;10.20;;;;;;;8.35;100.00;162748.53;4992569;28;20056;-54
2022/05/04 06:17:35;;;;;;;11.10;7.10;;;;;;;8.49;100.00;162785.00;4990813;28;20070;-55
2022/05/04 06:20:00;;;;;;;23.23;9.93;;;;;;;8.53;100.00;162795.75;4991681;28;20031;-55
2022/05/04 06:22:26;;;;;;;16.02;7.25;;;;;;;8.62;100.00;162817.34;4988877;28;20050;-55
2022/05/04 06:24:51;;;;;;;18.05;8.52;;;;;;;8.98;100.00;162911.72;4992005;28;20037;-55
2022/05/04 06:27:16;;;;;;;18.90;7.03;;;;;;;9.21;100.00;162973.75;4990619;28;20042;-55
2022/05/04 06:35:11;;;;;;;14.73;8.70;;;;;;;9.74;100.00;163110.00;4991995;28;20448;-54
2022/05/04 06:37:36;;;;;;;14.60;5.55;;;;;;;9.80;100.00;163127.50;4990377;28;20443;-55
2022/05/04 06:40:03;;;;;;;15.02;6.43;;;;;;;9.96;100.00;163168.00;4992076;28;20018;-55
2022/05/04 06:42:29;;;;;;;17.27;7.32;;;;;;;10.14;100.00;163215.22;4990024;28;20577;-55
2022/05/04 06:44:54;;;;;;;16.50;5.95;;;;;;;10.07;100.00;163197.69;4992454;28;20022;-54
2022/05/04 06:47:19;;;;;;;19.13;6.38;;;;;;;9.90;100.00;163153.19;4990547;28;20049;-55
2022/05/04 06:49:45;;;;;;;14.13;5.85;;;;;;;10.00;100.00;163178.81;4991457;28;20042;-55
2022/05/04 06:52:10;;;;;;;32.08;6.90;;;;;;;10.05;100.00;163190.97;4990487;28;20034;-55
2022/05/04 06:54:37;;;;;;;16.85;7.07;;;;;;;10.04;100.00;163189.59;4991298;28;20080;-55
2022/05/04 06:57:02;;;;;;;21.02;7.18;;;;;;;10.20;100.00;163230.06;4990030;28;20494;-55
2022/05/04 06:59:28;;;;;;;20.25;6.80;;;;;;;9.98;100.00;163174.72;4991636;28;20040;-54
2022/05/04 07:01:53;;;;;;;19.85;5.82;;;;;;;9.72;100.00;163104.59;4990267;28;20108;-55
2022/05/04 07:04:21;;;;;;;13.07;5.22;;;;;;;9.47;100.00;163041.22;4991294;28;20490;-55
2022/05/04 07:06:46;;;;;;;16.30;5.88;;;;;;;9.52;100.00;163054.69;4990264;28;20046;-55
2022/05/04 07:09:12;;;;;;;19.80;7.13;;;;;;;9.51;100.00;163051.97;4991744;28;20133;-55
2022/05/04 07:11:37;;;;;;;13.25;6.45;;;;;;;9.65;100.00;163087.03;4989913;28;20564;-55
2022/05/04 07:14:03;;;;;;;9.80;5.55;;;;;;;9.43;100.00;163030.38;4991952;28;20022;-55
2022/05/04 07:16:28;;;;;;;13.70;6.93;;;;;;;9.66;100.00;163089.75;4986790;28;20073;-55
2022/05/04 07:18:53;;;;;;;17.70;6.82;;;;;;;9.91;100.00;163154.50;4989218;28;20034;-54
2022/05/04 07:21:19;;;;;;;17.90;6.15;;;;;;;10.05;100.00;163192.28;4989688;28;20096;-55
2022/05/04 07:23:44;;;;;;;19.98;8.15;;;;;;;9.84;100.00;163138.34;4991179;28;20077;-54
2022/05/04 07:26:09;;;;;;;18.35;9.38;;;;;;;10.36;100.00;163273.25;4989934;28;20043;-55
2022/05/04 07:28:35;;;;;;;17.45;6.55;;;;;;;10.66;100.00;163350.22;4991276;28;20393;-54
2022/05/04 07:31:00;;;;;;;18.27;6.43;;;;;;;10.69;100.00;163359.66;4990153;28;20043;-55
2022/05/04 07:33:25;;;;;;;19.23;8.95;;;;;;;10.53;100.00;163317.84;4990798;28;20038;-55
2022/05/04 07:35:51;;;;;;;17.98;7.70;;;;;;;10.83;100.00;163396.13;4989885;28;20045;-54
2022/05/04 07:38:16;;;;;;;12.65;5.13;;;;;;;10.83;100.00;163394.81;4991514;28;20489;-54
2022/05/04 07:43:26;;;;;;;17.63;6.55;;;;;;;11.24;100.00;163504.13;4991027;28;20410;-54
2022/05/04 07:45:51;;;;;;;11.10;6.15;;;;;;;11.25;100.00;163505.50;4990199;28;20034;-55
2022/05/04 07:48:17;;;;;;;16.42;5.70;;;;;;;11.16;100.00;163481.19;4990936;28;20466;-54
2022/05/04 07:50:42;;;;;;;16.27;6.75;;;;;;;11.41;100.00;163548.75;4989663;28;20030;-55
2022/05/04 07:53:08;;;;;;;16.92;5.55;;;;;;;11.37;100.00;163537.91;4991487;28;20492;-55
2022/05/04 07:55:36;;;;;;;11.82;5.85;;;;;;;11.80;100.00;163648.69;4989548;28;20385;-54
2022/05/04 07:58:01;;;;;;;18.33;7.43;;;;;;;12.20;100.00;163754.09;4991011;28;20046;-54
2022/05/04 08:05:54;;;;;;;18.92;6.93;;;;;;;12.24;100.00;163764.91;4989838;28;20456;-54
2022/05/04 08:08:20;;;;;;;25.02;9.95;;;;;;;12.01;100.00;163705.47;4994838;28;20026;-55
2022/05/04 08:10:45;;;;;;;17.17;6.53;;;;;;;12.06;100.00;163718.97;4991453;28;20490;-54
2022/05/04 08:13:10;;;;;;;14.45;6.10;;;;;;;12.27;100.00;163771.66;4993181;28;20053;-55
2022/05/04 08:15:37;;;;;;;14.52;8.25;;;;;;;12.74;100.00;163894.63;4992909;28;20072;-54
2022/05/04 08:18:03;;;;;;;15.65;7.53;;;;;;;12.79;100.00;163908.13;4994414;28;20026;-54
2022/05/04 08:20:29;;;;;;;20.55;7.03;;;;;;;13.28;100.00;164036.56;4993329;28;20026;-54
2022/05/04 08:22:55;;;;;;;13.93;7.65;;;;;;;13.75;100.00;164159.66;4994695;28;20022;-55
2022/05/04 08:25:20;;;;;;;17.20;6.55;;;;;;;13.58;100.00;164116.41;4994514;28;20109;-55
2022/05/04 08:27:46;;;;;;;16.42;7.15;;;;;;;13.67;100.00;164138.00;4992899;28;20061;-55
2022/05/04 08:30:11;;;;;;;12.80;5.80;;;;;;;13.71;100.00;164148.84;4994596;28;20018;-55
2022/05/04 08:32:37;;;;;;;27.88;9.20;;;;;;;13.79;100.00;164171.84;4992275;28;20045;-55
2022/05/04 08:35:02;;;;;;;15.95;7.78;;;;;;;13.86;100.00;164188.06;4994687;28;20033;-55
2022/05/04 08:37:28;;;;;;;16.35;6.43;;;;;;;13.73;100.00;164154.28;4992747;28;20068;-55
2022/05/04 08:39:55;;;;;;;15.98;6.95;;;;;;;14.36;100.00;164319.28;4994076;28;20026;-55
2022/05/04 08:42:20;;;;;;;13.27;5.97;;;;;;;13.63;100.00;164129.94;4992809;28;20034;-54
2022/05/04 08:44:51;;;;;;;19.27;6.40;;;;;;;13.56;100.00;164111.00;4994082;28;20045;-55
2022/05/04 08:47:21;;;;;;;17.75;6.97;;;;;;;13.44;100.00;164078.56;4992933;28;20035;-55
2022/05/04 08:49:47;;;;;;;12.25;6.45;;;;;;;14.02;100.00;164230.03;4990407;28;20026;-55
2022/05/04 08:52:13;;;;;;;19.73;5.78;;;;;;;14.22;100.00;164284.13;4989552;28;20142;-55
2022/05/04 08:54:40;;;;;;;18.02;6.35;;;;;;;14.24;100.00;164289.53;4976935;28;20141;-55
2022/05/04 08:57:07;;;;;;;11.25;5.82;;;;;;;14.35;100.00;164317.94;4992319;28;20053;-54
2022/05/04 08:59:33;;;;;;;22.40;7.38;;;;;;;14.59;100.00;164381.53;4993865;28;20065;-55
2022/05/04 09:01:58;;;;;;;13.48;7.38;;;;;;;14.46;100.00;164346.34;4992036;28;20121;-55
2022/05/04 09:04:24;;;;;;;13.93;6.13;;;;;;;14.71;100.00;164411.31;4993493;28;20433;-54
2022/05/04 09:06:50;;;;;;;13.15;6.05;;;;;;;14.83;100.00;164443.84;4992305;28;20120;-54
2022/05/04 09:09:15;;;;;;;9.90;5.53;;;;;;;14.61;100.00;164385.56;4993590;28;20026;-55
2022/05/04 09:11:43;;;;;;;13.50;5.55;;;;;;;14.45;100.00;164343.66;4991941;28;20105;-55
2022/05/04 09:14:13;;;;;;;13.35;5.60;;;;;;;14.75;100.00;164422.16;4993779;28;20049;-55
2022/05/04 09:16:39;;;;;;;12.02;5.93;;;;;;;15.31;100.00;164568.31;4991725;28;20038;-55
2022/05/04 09:19:08;;;;;;;18.23;6.18;;;;;;;14.91;100.00;164465.50;4993220;28;20027;-55
2022/05/04 09:21:35;;;;;;;10.98;5.68;;;;;;;15.38;100.00;164587.25;4992101;28;20506;-55
2022/05/04 09:24:00;;;;;;;19.08;8.70;;;;;;;15.16;100.00;164530.41;4993651;28;20037;-55
2022/05/04 09:26:26;;;;;;;13.73;6.05;;;;;;;15.61;100.00;164646.84;4991690;28;20038;-57
2022/05/04 09:28:59;;;;;;;17.00;5.32;;;;;;;16.26;100.00;164817.53;4993347;28;20034;-55
2022/05/04 09:31:27;;;;;;;13.45;5.63;;;;;;;16.63;100.00;164916.41;4991535;28;20077;-55
2022/05/04 09:33:57;;;;;;;13.52;6.50;;;;;;;16.08;100.00;164771.47;4993105;28;20490;-55
2022/05/04 09:45:14;;;;;;;16.45;9.13;;;;;;;14.49;100.00;164353.13;4993277;28;20073;-54
2022/05/04 09:47:44;;;;;;;12.43;7.07;;;;;;;14.83;100.00;164442.44;4991018;28;20034;-55
2022/05/04 09:50:12;;;;;;;14.30;6.70;;;;;;;15.18;100.00;164535.84;4993341;28;20085;-55
2022/05/04 09:52:43;;;;;;;8.23;5.63;;;;;;;16.01;100.00;164752.53;4991291;28;20570;-55
2022/05/04 09:55:25;;;;;;;14.00;8.07;;;;;;;16.68;100.00;164928.59;4992578;28;20478;-55
2022/05/04 09:57:52;;;;;;;10.63;6.80;;;;;;;16.57;100.00;164900.16;4991227;28;20047;-55
2022/05/04 10:00:20;;;;;;;13.73;6.07;;;;;;;16.32;100.00;164835.13;4992777;28;20033;-55
2022/05/04 10:02:46;;;;;;;17.73;7.13;;;;;;;16.55;100.00;164893.38;4990752;28;20418;-55
2022/05/04 10:05:13;;;;;;;12.75;6.82;;;;;;;16.62;100.00;164912.34;4992959;28;20437;-54
2022/05/04 10:07:40;;;;;;;11.07;5.45;;;;;;;17.04;100.00;165023.47;4991029;28;20101;-55
2022/05/04 10:10:08;;;;;;;14.88;6.90;;;;;;;17.35;100.00;165104.78;4990627;28;20109;-55
2022/05/04 10:12:39;;;;;;;10.48;5.32;;;;;;;17.96;94.52;165264.78;4976135;28;20054;-55
2022/05/04 10:15:11;;;;;;;14.90;6.07;;;;;;;18.16;94.58;165316.28;4972933;28;20482;-55
2022/05/04 10:17:41;;;;;;;11.77;5.78;;;;;;;18.00;96.09;165275.59;4972092;28;20085;-55
2022/05/04 10:20:20;;;;;;;15.93;6.22;;;;;;;17.83;92.87;165229.50;4973254;28;20026;-55
2022/05/04 10:23:00;;;;;;;10.02;5.05;;;;;;;17.74;96.92;165207.81;4975904;28;20153;-55
2022/05/04 10:25:26;;;;;;;11.93;5.25;;;;;;;18.27;92.06;165344.75;4990361;28;20385;-53
2022/05/04 10:28:04;;;;;;;14.25;6.70;;;;;;;17.77;90.08;165214.56;4981295;28;20022;-55
2022/05/04 10:30:30;;;;;;;;;;;;;;;17.34;89.20;165102.06;4970685;28;20089;-55
2022/05/04 10:33:01;;;;;;;9.00;5.97;;;;;;;17.20;94.61;165065.47;4990668;28;20323;-55
2022/05/04 10:35:32;;;;;;;13.77;6.22;;;;;;;18.37;93.09;165371.91;4989354;28;20089;-54
2022/05/04 10:37:57;;;;;;;14.10;5.40;;;;;;;18.63;91.46;165439.66;4984414;28;20023;-55
2022/05/04 10:40:27;;;;;;;12.25;6.15;;;;;;;18.81;87.83;165487.13;4973250;28;20634;-55
2022/05/04 10:42:57;;;;;;;14.50;6.47;;;;;;;18.12;89.20;165305.47;4971109;28;20039;-54
2022/05/04 10:45:28;;;;;;;13.95;6.18;;;;;;;18.42;85.45;165385.44;4972991;28;20022;-55
2022/05/04 10:48:02;;;;;;;8.05;4.43;;;;;;;18.13;83.45;165308.19;4970959;28;20034;-54
2022/05/04 10:50:46;;;;;;;16.10;5.57;;;;;;;17.61;77.43;165172.53;4971219;28;20069;-54
2022/05/04 10:53:38;;;;;;;16.83;6.95;;;;;;;17.40;78.21;165117.00;4972144;28;20023;-55
2022/05/04 10:56:06;;;;;;;11.95;5.72;;;;;;;17.88;79.80;165243.03;4970803;28;20042;-55
2022/05/04 10:58:37;;;;;;;9.23;4.82;;;;;;;17.81;84.00;165224.06;4972597;28;20018;-55
2022/05/04 11:01:17;;;;;;;9.98;4.75;;;;;;;17.55;84.05;165156.28;4970759;28;20418;-55
2022/05/04 11:04:08;;;;;;;15.82;6.20;;;;;;;17.09;82.67;165037.00;4972332;28;20033;-55
2022/05/04 11:06:44;;;;;;;10.77;6.07;;;;;;;17.03;87.29;165020.75;4970961;28;20049;-54
2022/05/04 11:09:15;;;;;;;11.45;6.00;;;;;;;17.47;84.96;165134.59;4972345;28;20027;-55
2022/05/04 11:11:43;;;;;;;8.20;4.88;;;;;;;17.73;82.15;165205.09;4970667;28;20049;-55
2022/05/04 11:14:10;;;;;;;16.20;6.00;;;;;;;17.47;81.87;165135.97;4972459;28;20029;-55
2022/05/04 11:16:37;;;;;;;9.53;5.50;;;;;;;17.20;86.44;165065.47;4970469;28;20046;-54
2022/05/04 11:19:04;;;;;;;10.43;5.35;;;;;;;16.73;80.61;164942.13;4972240;28;20018;-55
2022/05/04 11:21:30;;;;;;;11.65;5.95;;;;;;;17.02;88.23;165018.03;4970823;28;20043;-55
2022/05/04 11:24:00;;;;;;;13.45;5.95;;;;;;;17.34;80.19;165102.06;4971849;28;20027;-55
2022/05/04 11:26:33;;;;;;;12.23;6.82;;;;;;;16.95;83.77;164999.06;4970578;28;20069;-55
2022/05/04 11:28:58;;;;;;;10.32;5.65;;;;;;;16.90;88.44;164985.50;4972413;28;20439;-54
2022/05/04 11:31:24;;;;;;;15.50;6.10;;;;;;;17.42;84.82;165123.75;4970409;28;20046;-55
2022/05/04 11:33:50;;;;;;;14.70;6.15;;;;;;;17.77;83.29;165215.91;4971895;28;20027;-55
2022/05/04 11:36:20;;;;;;;16.60;7.85;;;;;;;17.65;84.83;165182.06;4970689;28;20078;-55
2022/05/04 11:38:46;;;;;;;13.35;5.65;;;;;;;17.80;85.74;165221.34;4981570;28;20425;-55
2022/05/04 11:41:13;;;;;;;10.68;6.13;;;;;;;17.66;87.14;165184.72;4991023;28;20046;-55
2022/05/04 11:43:38;;;;;;;15.27;5.10;;;;;;;17.49;84.71;165141.41;4978358;28;20022;-55
2022/05/04 11:46:09;;;;;;;14.00;6.05;;;;;;;17.43;82.17;165126.47;4993678;28;20045;-55
2022/05/04 11:48:46;;;;;;;10.18;4.60;;;;;;;17.11;81.88;165042.44;4994818;28;20023;-55